sensor_id;sensor_type;location;lat;lon;timestamp;pressure;altitude;pressure_sealevel;temperature;humidity
28027;BME280;15344;52.342;-1.290;2024-01-07T00:00:17;100945.44;;;8.63;98.04
28027;BME280;15344;52.342;-1.290;2024-01-07T00:02:42;100947.60;;;7.81;100.00
28027;BME280;15344;52.342;-1.290;2024-01-07T00:05:07;100949.18;;;7.98;100.00
28027;BME280;15344;52.342;-1.290;2024-01-07T00:07:32;100951.27;;;8.59;100.00
28027;BME280;15344;52.342;-1.290;2024-01-07T00:09:57;100959.36;;;7.42;100.00
28027;BME280;15344;52.342;-1.290;2024-01-07T00:12:23;100963.96;;;8.48;100.00
28027;BME280;15344;52.342;-1.290;2024-01-07T00:14:48;100965.88;;;7.87;100.00
28027;BME280;15344;52.342;-1.290;2024-01-07T00:17:14;100968.64;;;7.73;100.00
28027;BME280;15344;52.342;-1.290;2024-01-07T00:19:40;100971.55;;;7.04;100.00
28027;BME280;15344;52.342;-1.290;2024-01-07T00:22:05;100964.88;;;7.70;100.00
28027;BME280;15344;52.342;-1.290;2024-01-07T00:24:31;100966.08;;;7.77;100.00
28027;BME280;15344;52.342;-1.290;2024-01-07T00:26:56;100969.04;;;7.51;100.00
28027;BME280;15344;52.342;-1.290;2024-01-07T00:29:22;100965.00;;;7.95;100.00
28027;BME280;15344;52.342;-1.290;2024-01-07T00:31:47;100964.76;;;8.68;100.00
28027;BME280;15344;52.342;-1.290;2024-01-07T00:34:13;100973.16;;;6.72;100.00
28027;BME280;15344;52.342;-1.290;2024-01-07T00:36:38;100973.35;;;7.86;100.00
28027;BME280;15344;52.342;-1.290;2024-01-07T00:39:03;100984.61;;;7.27;100.00
28027;BME280;15344;52.342;-1.290;2024-01-07T00:41:29;100984.50;;;8.02;100.00
28027;BME280;15344;52.342;-1.290;2024-01-07T00:43:55;100984.79;;;8.45;100.00
28027;BME280;15344;52.342;-1.290;2024-01-07T00:46:20;100987.63;;;8.90;98.45
28027;BME280;15344;52.342;-1.290;2024-01-07T00:48:46;100987.98;;;7.90;99.34
28027;BME280;15344;52.342;-1.290;2024-01-07T00:51:11;100991.83;;;8.80;97.89
28027;BME280;15344;52.342;-1.290;2024-01-07T00:53:37;100984.81;;;8.84;95.47
28027;BME280;15344;52.342;-1.290;2024-01-07T00:56:03;100983.19;;;8.48;95.79
28027;BME280;15344;52.342;-1.290;2024-01-07T00:58:28;100990.04;;;7.78;96.15
28027;BME280;15344;52.342;-1.290;2024-01-07T01:00:53;100997.95;;;7.96;99.92
28027;BME280;15344;52.342;-1.290;2024-01-07T01:03:19;101002.10;;;8.51;96.32
28027;BME280;15344;52.342;-1.290;2024-01-07T01:05:44;101003.41;;;8.42;94.65
28027;BME280;15344;52.342;-1.290;2024-01-07T01:08:10;101010.19;;;7.45;100.00
28027;BME280;15344;52.342;-1.290;2024-01-07T01:10:35;101005.50;;;8.76;93.56
28027;BME280;15344;52.342;-1.290;2024-01-07T01:13:01;101008.62;;;9.08;92.11
28027;BME280;15344;52.342;-1.290;2024-01-07T01:15:26;101006.82;;;8.47;94.02
28027;BME280;15344;52.342;-1.290;2024-01-07T01:17:52;101008.34;;;8.34;95.84
28027;BME280;15344;52.342;-1.290;2024-01-07T01:20:17;101006.35;;;7.58;99.23
28027;BME280;15344;52.342;-1.290;2024-01-07T01:22:42;101008.47;;;8.48;96.80
28027;BME280;15344;52.342;-1.290;2024-01-07T01:25:08;101016.73;;;8.29;97.53
28027;BME280;15344;52.342;-1.290;2024-01-07T01:27:34;101013.94;;;8.23;98.57
28027;BME280;15344;52.342;-1.290;2024-01-07T01:29:59;101013.82;;;7.81;98.06
28027;BME280;15344;52.342;-1.290;2024-01-07T01:32:25;101011.61;;;8.59;96.25
28027;BME280;15344;52.342;-1.290;2024-01-07T01:34:51;101013.30;;;8.70;95.40
28027;BME280;15344;52.342;-1.290;2024-01-07T01:37:16;101014.10;;;8.82;92.87
28027;BME280;15344;52.342;-1.290;2024-01-07T01:39:41;101013.93;;;8.48;94.28
28027;BME280;15344;52.342;-1.290;2024-01-07T01:42:07;101022.23;;;8.32;97.88
28027;BME280;15344;52.342;-1.290;2024-01-07T01:44:32;101025.06;;;8.21;97.43
28027;BME280;15344;52.342;-1.290;2024-01-07T01:46:58;101029.09;;;7.71;98.54
28027;BME280;15344;52.342;-1.290;2024-01-07T01:49:23;101032.61;;;7.88;99.86
28027;BME280;15344;52.342;-1.290;2024-01-07T01:51:48;101032.22;;;7.34;100.00
28027;BME280;15344;52.342;-1.290;2024-01-07T01:54:14;101030.95;;;7.32;100.00
28027;BME280;15344;52.342;-1.290;2024-01-07T01:56:39;101030.97;;;7.75;100.00
28027;BME280;15344;52.342;-1.290;2024-01-07T01:59:05;101034.41;;;7.43;99.94
28027;BME280;15344;52.342;-1.290;2024-01-07T02:01:31;101038.10;;;6.94;100.00
28027;BME280;15344;52.342;-1.290;2024-01-07T02:03:57;101036.95;;;8.00;98.13
28027;BME280;15344;52.342;-1.290;2024-01-07T02:06:23;101042.82;;;7.62;97.55
28027;BME280;15344;52.342;-1.290;2024-01-07T02:08:48;101047.66;;;7.79;95.83
28027;BME280;15344;52.342;-1.290;2024-01-07T02:11:16;101046.31;;;8.63;92.78
28027;BME280;15344;52.342;-1.290;2024-01-07T02:13:39;101050.37;;;8.13;95.09
28027;BME280;15344;52.342;-1.290;2024-01-07T02:16:05;101056.95;;;6.96;100.00
28027;BME280;15344;52.342;-1.290;2024-01-07T02:18:30;101060.64;;;7.01;100.00
28027;BME280;15344;52.342;-1.290;2024-01-07T02:20:56;101065.51;;;8.02;96.79
28027;BME280;15344;52.342;-1.290;2024-01-07T02:23:21;101066.45;;;8.17;94.88
28027;BME280;15344;52.342;-1.290;2024-01-07T02:25:47;101072.60;;;7.62;97.17
28027;BME280;15344;52.342;-1.290;2024-01-07T02:28:13;101070.71;;;7.60;98.14
28027;BME280;15344;52.342;-1.290;2024-01-07T02:30:38;101067.54;;;8.32;95.24
28027;BME280;15344;52.342;-1.290;2024-01-07T02:33:04;101074.30;;;7.89;96.41
28027;BME280;15344;52.342;-1.290;2024-01-07T02:35:29;101076.60;;;8.75;93.64
28027;BME280;15344;52.342;-1.290;2024-01-07T02:37:54;101078.13;;;8.76;93.29
28027;BME280;15344;52.342;-1.290;2024-01-07T02:40:20;101078.07;;;7.97;94.87
28027;BME280;15344;52.342;-1.290;2024-01-07T02:42:45;101075.44;;;8.29;95.22
28027;BME280;15344;52.342;-1.290;2024-01-07T02:45:11;101076.64;;;7.77;97.28
28027;BME280;15344;52.342;-1.290;2024-01-07T02:47:36;101079.17;;;8.70;93.98
28027;BME280;15344;52.342;-1.290;2024-01-07T02:50:02;101082.50;;;8.62;94.01
28027;BME280;15344;52.342;-1.290;2024-01-07T02:52:28;101081.80;;;8.77;91.15
28027;BME280;15344;52.342;-1.290;2024-01-07T02:54:53;101079.64;;;9.26;90.39
28027;BME280;15344;52.342;-1.290;2024-01-07T02:57:18;101083.13;;;9.06;91.65
28027;BME280;15344;52.342;-1.290;2024-01-07T02:59:44;101084.36;;;8.95;93.46
28027;BME280;15344;52.342;-1.290;2024-01-07T03:02:09;101081.13;;;9.26;92.20
28027;BME280;15344;52.342;-1.290;2024-01-07T03:04:35;101086.52;;;9.25;90.99
28027;BME280;15344;52.342;-1.290;2024-01-07T03:07:01;101090.87;;;8.93;91.57
28027;BME280;15344;52.342;-1.290;2024-01-07T03:09:27;101094.90;;;7.71;97.49
28027;BME280;15344;52.342;-1.290;2024-01-07T03:11:52;101096.89;;;7.60;98.46
28027;BME280;15344;52.342;-1.290;2024-01-07T03:14:18;101096.30;;;7.84;96.37
28027;BME280;15344;52.342;-1.290;2024-01-07T03:16:43;101096.79;;;7.95;100.00
28027;BME280;15344;52.342;-1.290;2024-01-07T03:19:09;101099.31;;;8.30;95.78
28027;BME280;15344;52.342;-1.290;2024-01-07T03:21:36;101099.08;;;8.15;95.53
28027;BME280;15344;52.342;-1.290;2024-01-07T03:24:00;101104.16;;;7.96;94.90
28027;BME280;15344;52.342;-1.290;2024-01-07T03:26:30;101109.43;;;8.19;94.59
28027;BME280;15344;52.342;-1.290;2024-01-07T03:28:51;101107.30;;;7.74;96.03
28027;BME280;15344;52.342;-1.290;2024-01-07T03:31:19;101110.91;;;8.11;95.26
28027;BME280;15344;52.342;-1.290;2024-01-07T03:33:43;101114.79;;;8.02;95.77
28027;BME280;15344;52.342;-1.290;2024-01-07T03:36:08;101114.54;;;7.53;100.00
28027;BME280;15344;52.342;-1.290;2024-01-07T03:38:33;101116.69;;;6.84;100.00
28027;BME280;15344;52.342;-1.290;2024-01-07T03:40:58;101118.94;;;7.28;100.00
28027;BME280;15344;52.342;-1.290;2024-01-07T03:43:24;101122.72;;;7.83;98.45
28027;BME280;15344;52.342;-1.290;2024-01-07T03:45:49;101119.61;;;8.01;97.07
28027;BME280;15344;52.342;-1.290;2024-01-07T03:48:15;101122.56;;;6.67;100.00
28027;BME280;15344;52.342;-1.290;2024-01-07T03:50:40;101128.74;;;5.71;100.00
28027;BME280;15344;52.342;-1.290;2024-01-07T03:53:06;101125.97;;;7.39;98.97
28027;BME280;15344;52.342;-1.290;2024-01-07T03:55:31;101131.79;;;5.97;100.00
28027;BME280;15344;52.342;-1.290;2024-01-07T03:57:57;101132.59;;;6.22;100.00
28027;BME280;15344;52.342;-1.290;2024-01-07T04:00:22;101129.47;;;6.45;100.00
28027;BME280;15344;52.342;-1.290;2024-01-07T04:02:48;101129.77;;;7.16;100.00
28027;BME280;15344;52.342;-1.290;2024-01-07T04:05:13;101138.28;;;6.02;100.00
28027;BME280;15344;52.342;-1.290;2024-01-07T04:07:44;101131.80;;;7.15;100.00
28027;BME280;15344;52.342;-1.290;2024-01-07T04:10:05;101141.77;;;6.50;100.00
28027;BME280;15344;52.342;-1.290;2024-01-07T04:12:30;101145.27;;;6.70;100.00
28027;BME280;15344;52.342;-1.290;2024-01-07T04:14:55;101148.14;;;6.69;100.00
28027;BME280;15344;52.342;-1.290;2024-01-07T04:17:21;101150.10;;;6.37;100.00
28027;BME280;15344;52.342;-1.290;2024-01-07T04:19:46;101150.61;;;6.80;100.00
28027;BME280;15344;52.342;-1.290;2024-01-07T04:22:12;101150.11;;;7.04;100.00
28027;BME280;15344;52.342;-1.290;2024-01-07T04:24:40;101150.39;;;7.47;98.69
28027;BME280;15344;52.342;-1.290;2024-01-07T04:27:04;101153.10;;;6.06;100.00
28027;BME280;15344;52.342;-1.290;2024-01-07T04:29:29;101156.35;;;6.81;100.00
28027;BME280;15344;52.342;-1.290;2024-01-07T04:31:54;101161.94;;;6.91;100.00
28027;BME280;15344;52.342;-1.290;2024-01-07T04:34:20;101159.90;;;6.69;98.77
28027;BME280;15344;52.342;-1.290;2024-01-07T04:36:45;101161.51;;;6.21;100.00
28027;BME280;15344;52.342;-1.290;2024-01-07T04:39:11;101161.24;;;7.41;98.11
28027;BME280;15344;52.342;-1.290;2024-01-07T04:41:36;101165.21;;;6.23;100.00
28027;BME280;15344;52.342;-1.290;2024-01-07T04:44:02;101160.00;;;6.75;100.00
28027;BME280;15344;52.342;-1.290;2024-01-07T04:46:27;101161.85;;;6.69;100.00
28027;BME280;15344;52.342;-1.290;2024-01-07T04:48:53;101158.76;;;7.49;97.16
28027;BME280;15344;52.342;-1.290;2024-01-07T04:51:19;101164.19;;;7.46;96.78
28027;BME280;15344;52.342;-1.290;2024-01-07T04:53:44;101166.33;;;6.42;100.00
28027;BME280;15344;52.342;-1.290;2024-01-07T04:56:10;101170.35;;;7.03;100.00
28027;BME280;15344;52.342;-1.290;2024-01-07T04:58:41;101169.47;;;6.55;99.50
28027;BME280;15344;52.342;-1.290;2024-01-07T05:01:00;101172.34;;;7.53;96.06
28027;BME280;15344;52.342;-1.290;2024-01-07T05:03:26;101181.20;;;6.62;99.72
28027;BME280;15344;52.342;-1.290;2024-01-07T05:05:51;101180.21;;;6.89;97.68
28027;BME280;15344;52.342;-1.290;2024-01-07T05:08:18;101179.35;;;7.95;94.82
28027;BME280;15344;52.342;-1.290;2024-01-07T05:10:42;101185.13;;;7.32;97.85
28027;BME280;15344;52.342;-1.290;2024-01-07T05:13:08;101186.77;;;7.11;97.52
28027;BME280;15344;52.342;-1.290;2024-01-07T05:15:33;101176.34;;;7.61;92.25
28027;BME280;15344;52.342;-1.290;2024-01-07T05:17:59;101184.11;;;6.27;98.05
28027;BME280;15344;52.342;-1.290;2024-01-07T05:20:24;101186.88;;;7.41;91.71
28027;BME280;15344;52.342;-1.290;2024-01-07T05:22:50;101191.68;;;6.92;96.56
28027;BME280;15344;52.342;-1.290;2024-01-07T05:25:15;101187.37;;;7.29;94.15
28027;BME280;15344;52.342;-1.290;2024-01-07T05:27:41;101190.98;;;6.11;96.85
28027;BME280;15344;52.342;-1.290;2024-01-07T05:30:07;101196.08;;;6.51;95.43
28027;BME280;15344;52.342;-1.290;2024-01-07T05:32:32;101202.26;;;6.42;98.30
28027;BME280;15344;52.342;-1.290;2024-01-07T05:34:57;101206.51;;;6.78;94.42
28027;BME280;15344;52.342;-1.290;2024-01-07T05:37:23;101207.95;;;7.16;94.79
28027;BME280;15344;52.342;-1.290;2024-01-07T05:39:48;101212.64;;;6.98;95.70
28027;BME280;15344;52.342;-1.290;2024-01-07T05:42:14;101218.54;;;6.23;96.94
28027;BME280;15344;52.342;-1.290;2024-01-07T05:44:40;101219.44;;;6.43;93.99
28027;BME280;15344;52.342;-1.290;2024-01-07T05:47:05;101223.07;;;6.64;94.82
28027;BME280;15344;52.342;-1.290;2024-01-07T05:49:31;101220.41;;;6.01;96.77
28027;BME280;15344;52.342;-1.290;2024-01-07T05:51:56;101220.40;;;5.43;99.49
28027;BME280;15344;52.342;-1.290;2024-01-07T05:54:22;101222.00;;;6.33;94.82
28027;BME280;15344;52.342;-1.290;2024-01-07T05:56:47;101221.98;;;6.57;95.84
28027;BME280;15344;52.342;-1.290;2024-01-07T05:59:13;101226.97;;;6.78;92.66
28027;BME280;15344;52.342;-1.290;2024-01-07T06:01:38;101230.30;;;6.08;91.99
28027;BME280;15344;52.342;-1.290;2024-01-07T06:04:04;101237.00;;;6.47;91.89
28027;BME280;15344;52.342;-1.290;2024-01-07T06:06:30;101240.67;;;6.96;88.68
28027;BME280;15344;52.342;-1.290;2024-01-07T06:08:55;101243.89;;;7.15;86.78
28027;BME280;15344;52.342;-1.290;2024-01-07T06:11:21;101245.50;;;7.20;86.91
28027;BME280;15344;52.342;-1.290;2024-01-07T06:13:46;101246.85;;;6.93;87.45
28027;BME280;15344;52.342;-1.290;2024-01-07T06:16:12;101244.91;;;6.23;90.70
28027;BME280;15344;52.342;-1.290;2024-01-07T06:18:38;101245.79;;;6.64;88.60
28027;BME280;15344;52.342;-1.290;2024-01-07T06:21:04;101250.90;;;6.98;86.27
28027;BME280;15344;52.342;-1.290;2024-01-07T06:23:29;101250.19;;;7.17;87.79
28027;BME280;15344;52.342;-1.290;2024-01-07T06:25:54;101253.04;;;6.93;85.81
28027;BME280;15344;52.342;-1.290;2024-01-07T06:28:20;101254.82;;;6.79;87.11
28027;BME280;15344;52.342;-1.290;2024-01-07T06:30:46;101250.65;;;6.28;86.58
28027;BME280;15344;52.342;-1.290;2024-01-07T06:33:11;101250.99;;;6.62;86.41
28027;BME280;15344;52.342;-1.290;2024-01-07T06:35:36;101256.64;;;7.12;84.85
28027;BME280;15344;52.342;-1.290;2024-01-07T06:38:07;101254.66;;;6.64;86.57
28027;BME280;15344;52.342;-1.290;2024-01-07T06:40:28;101256.06;;;6.42;87.36
28027;BME280;15344;52.342;-1.290;2024-01-07T06:42:53;101256.70;;;5.94;88.74
28027;BME280;15344;52.342;-1.290;2024-01-07T06:45:19;101262.23;;;6.13;86.30
28027;BME280;15344;52.342;-1.290;2024-01-07T06:47:45;101266.26;;;5.99;88.98
28027;BME280;15344;52.342;-1.290;2024-01-07T06:50:10;101273.63;;;6.57;86.89
28027;BME280;15344;52.342;-1.290;2024-01-07T06:52:36;101279.61;;;7.21;85.24
28027;BME280;15344;52.342;-1.290;2024-01-07T06:55:01;101280.03;;;4.94;93.92
28027;BME280;15344;52.342;-1.290;2024-01-07T06:57:27;101280.16;;;6.30;88.95
28027;BME280;15344;52.342;-1.290;2024-01-07T06:59:53;101285.77;;;5.79;88.74
28027;BME280;15344;52.342;-1.290;2024-01-07T07:02:19;101290.00;;;6.48;86.06
28027;BME280;15344;52.342;-1.290;2024-01-07T07:04:44;101294.86;;;6.91;84.87
28027;BME280;15344;52.342;-1.290;2024-01-07T07:07:09;101296.79;;;6.65;83.97
28027;BME280;15344;52.342;-1.290;2024-01-07T07:09:35;101300.40;;;6.32;85.74
28027;BME280;15344;52.342;-1.290;2024-01-07T07:12:00;101304.97;;;5.83;89.77
28027;BME280;15344;52.342;-1.290;2024-01-07T07:14:26;101304.13;;;6.22;87.86
28027;BME280;15344;52.342;-1.290;2024-01-07T07:16:52;101307.48;;;5.69;89.42
28027;BME280;15344;52.342;-1.290;2024-01-07T07:19:17;101316.94;;;5.37;90.95
28027;BME280;15344;52.342;-1.290;2024-01-07T07:21:43;101318.02;;;6.02;87.32
28027;BME280;15344;52.342;-1.290;2024-01-07T07:24:08;101320.64;;;5.80;88.42
28027;BME280;15344;52.342;-1.290;2024-01-07T07:26:34;101326.22;;;6.22;85.97
28027;BME280;15344;52.342;-1.290;2024-01-07T07:29:00;101328.21;;;6.78;84.41
28027;BME280;15344;52.342;-1.290;2024-01-07T07:31:26;101339.67;;;5.45;86.65
28027;BME280;15344;52.342;-1.290;2024-01-07T07:33:51;101339.40;;;6.10;88.25
28027;BME280;15344;52.342;-1.290;2024-01-07T07:36:17;101338.54;;;4.87;91.35
28027;BME280;15344;52.342;-1.290;2024-01-07T07:38:42;101340.36;;;5.42;90.72
28027;BME280;15344;52.342;-1.290;2024-01-07T07:41:08;101345.90;;;5.92;86.64
28027;BME280;15344;52.342;-1.290;2024-01-07T07:43:33;101347.48;;;5.84;86.80
28027;BME280;15344;52.342;-1.290;2024-01-07T07:45:59;101348.05;;;5.21;87.32
28027;BME280;15344;52.342;-1.290;2024-01-07T07:48:25;101352.88;;;6.04;85.81
28027;BME280;15344;52.342;-1.290;2024-01-07T07:50:50;101351.76;;;6.26;83.77
28027;BME280;15344;52.342;-1.290;2024-01-07T07:53:16;101359.40;;;6.38;82.79
28027;BME280;15344;52.342;-1.290;2024-01-07T07:55:41;101361.14;;;5.73;85.66
28027;BME280;15344;52.342;-1.290;2024-01-07T07:58:07;101361.02;;;6.35;82.96
28027;BME280;15344;52.342;-1.290;2024-01-07T08:00:33;101362.87;;;6.00;83.68
28027;BME280;15344;52.342;-1.290;2024-01-07T08:02:58;101369.88;;;5.87;84.73
28027;BME280;15344;52.342;-1.290;2024-01-07T08:05:24;101368.18;;;5.70;81.62
28027;BME280;15344;52.342;-1.290;2024-01-07T08:07:50;101367.97;;;6.06;81.62
28027;BME280;15344;52.342;-1.290;2024-01-07T08:10:15;101367.80;;;5.06;85.12
28027;BME280;15344;52.342;-1.290;2024-01-07T08:12:41;101368.36;;;5.60;84.86
28027;BME280;15344;52.342;-1.290;2024-01-07T08:15:07;101367.34;;;6.11;83.23
28027;BME280;15344;52.342;-1.290;2024-01-07T08:17:32;101370.42;;;5.15;85.18
28027;BME280;15344;52.342;-1.290;2024-01-07T08:19:57;101377.41;;;6.04;85.06
28027;BME280;15344;52.342;-1.290;2024-01-07T08:22:23;101377.99;;;5.72;83.99
28027;BME280;15344;52.342;-1.290;2024-01-07T08:24:48;101378.99;;;5.71;84.63
28027;BME280;15344;52.342;-1.290;2024-01-07T08:27:13;101381.35;;;5.95;84.18
28027;BME280;15344;52.342;-1.290;2024-01-07T08:29:38;101387.25;;;5.81;87.19
28027;BME280;15344;52.342;-1.290;2024-01-07T08:32:04;101389.02;;;5.62;87.81
28027;BME280;15344;52.342;-1.290;2024-01-07T08:34:29;101392.45;;;6.02;85.54
28027;BME280;15344;52.342;-1.290;2024-01-07T08:36:55;101391.62;;;4.65;89.62
28027;BME280;15344;52.342;-1.290;2024-01-07T08:39:20;101391.95;;;5.24;87.45
28027;BME280;15344;52.342;-1.290;2024-01-07T08:41:45;101395.79;;;5.84;84.43
28027;BME280;15344;52.342;-1.290;2024-01-07T08:44:10;101400.39;;;5.75;85.94
28027;BME280;15344;52.342;-1.290;2024-01-07T08:46:36;101405.29;;;6.49;82.79
28027;BME280;15344;52.342;-1.290;2024-01-07T08:49:02;101400.71;;;5.78;83.94
28027;BME280;15344;52.342;-1.290;2024-01-07T08:51:27;101405.76;;;5.82;84.52
28027;BME280;15344;52.342;-1.290;2024-01-07T08:53:52;101406.43;;;5.80;85.05
28027;BME280;15344;52.342;-1.290;2024-01-07T08:56:18;101406.61;;;6.49;84.12
28027;BME280;15344;52.342;-1.290;2024-01-07T08:58:43;101409.03;;;6.23;83.71
28027;BME280;15344;52.342;-1.290;2024-01-07T09:01:09;101410.70;;;6.40;81.90
28027;BME280;15344;52.342;-1.290;2024-01-07T09:03:34;101414.49;;;4.97;85.65
28027;BME280;15344;52.342;-1.290;2024-01-07T09:06:00;101421.19;;;5.20;86.80
28027;BME280;15344;52.342;-1.290;2024-01-07T09:08:25;101423.03;;;5.30;84.83
28027;BME280;15344;52.342;-1.290;2024-01-07T09:10:51;101417.41;;;6.11;83.27
28027;BME280;15344;52.342;-1.290;2024-01-07T09:13:17;101419.65;;;4.57;88.55
28027;BME280;15344;52.342;-1.290;2024-01-07T09:15:42;101424.71;;;5.51;87.71
28027;BME280;15344;52.342;-1.290;2024-01-07T09:18:08;101431.67;;;5.47;83.44
28027;BME280;15344;52.342;-1.290;2024-01-07T09:20:33;101431.15;;;5.45;85.54
28027;BME280;15344;52.342;-1.290;2024-01-07T09:22:59;101428.23;;;5.23;85.86
28027;BME280;15344;52.342;-1.290;2024-01-07T09:25:25;101423.18;;;5.78;84.49
28027;BME280;15344;52.342;-1.290;2024-01-07T09:27:50;101426.32;;;5.66;85.81
28027;BME280;15344;52.342;-1.290;2024-01-07T09:30:16;101426.17;;;5.62;84.58
28027;BME280;15344;52.342;-1.290;2024-01-07T09:32:41;101434.54;;;6.24;82.78
28027;BME280;15344;52.342;-1.290;2024-01-07T09:35:07;101439.35;;;5.61;83.41
28027;BME280;15344;52.342;-1.290;2024-01-07T09:37:32;101444.95;;;5.27;86.23
28027;BME280;15344;52.342;-1.290;2024-01-07T09:39:58;101444.53;;;5.25;86.08
28027;BME280;15344;52.342;-1.290;2024-01-07T09:42:24;101441.16;;;5.28;86.86
28027;BME280;15344;52.342;-1.290;2024-01-07T09:44:50;101445.32;;;5.33;85.37
28027;BME280;15344;52.342;-1.290;2024-01-07T09:47:15;101450.39;;;5.34;88.99
28027;BME280;15344;52.342;-1.290;2024-01-07T09:49:41;101452.96;;;5.18;88.67
28027;BME280;15344;52.342;-1.290;2024-01-07T09:52:08;101459.79;;;5.34;90.47
28027;BME280;15344;52.342;-1.290;2024-01-07T09:54:32;101460.28;;;6.59;85.71
28027;BME280;15344;52.342;-1.290;2024-01-07T09:57:02;101463.45;;;5.64;87.42
28027;BME280;15344;52.342;-1.290;2024-01-07T09:59:23;101462.18;;;5.44;88.32
28027;BME280;15344;52.342;-1.290;2024-01-07T10:01:49;101464.64;;;5.59;90.94
28027;BME280;15344;52.342;-1.290;2024-01-07T10:04:14;101467.35;;;5.28;90.69
28027;BME280;15344;52.342;-1.290;2024-01-07T10:06:39;101470.75;;;6.55;87.49
28027;BME280;15344;52.342;-1.290;2024-01-07T10:09:06;101472.50;;;5.85;88.82
28027;BME280;15344;52.342;-1.290;2024-01-07T10:11:30;101474.71;;;5.33;92.47
28027;BME280;15344;52.342;-1.290;2024-01-07T10:13:56;101480.77;;;5.80;91.29
28027;BME280;15344;52.342;-1.290;2024-01-07T10:16:21;101488.37;;;5.67;89.17
28027;BME280;15344;52.342;-1.290;2024-01-07T10:18:47;101492.66;;;6.39;86.22
28027;BME280;15344;52.342;-1.290;2024-01-07T10:21:13;101494.64;;;5.69;88.48
28027;BME280;15344;52.342;-1.290;2024-01-07T10:23:38;101501.13;;;4.79;91.51
28027;BME280;15344;52.342;-1.290;2024-01-07T10:26:04;101497.84;;;5.28;90.23
28027;BME280;15344;52.342;-1.290;2024-01-07T10:28:29;101494.95;;;5.19;93.35
28027;BME280;15344;52.342;-1.290;2024-01-07T10:30:55;101498.55;;;5.84;89.98
28027;BME280;15344;52.342;-1.290;2024-01-07T10:33:20;101500.38;;;5.84;88.00
28027;BME280;15344;52.342;-1.290;2024-01-07T10:35:51;101502.21;;;5.22;90.92
28027;BME280;15344;52.342;-1.290;2024-01-07T10:38:12;101507.36;;;6.40;85.70
28027;BME280;15344;52.342;-1.290;2024-01-07T10:40:38;101513.55;;;6.25;85.65
28027;BME280;15344;52.342;-1.290;2024-01-07T10:43:03;101509.95;;;5.74;86.75
28027;BME280;15344;52.342;-1.290;2024-01-07T10:45:28;101515.28;;;6.78;84.68
28027;BME280;15344;52.342;-1.290;2024-01-07T10:47:55;101517.91;;;6.07;84.43
28027;BME280;15344;52.342;-1.290;2024-01-07T10:50:20;101524.24;;;5.59;87.93
28027;BME280;15344;52.342;-1.290;2024-01-07T10:52:49;101521.57;;;5.69;89.27
28027;BME280;15344;52.342;-1.290;2024-01-07T10:55:13;101519.07;;;7.12;83.04
28027;BME280;15344;52.342;-1.290;2024-01-07T10:57:42;101514.47;;;5.67;84.84
28027;BME280;15344;52.342;-1.290;2024-01-07T11:00:02;101517.80;;;6.22;85.73
28027;BME280;15344;52.342;-1.290;2024-01-07T11:02:28;101518.54;;;6.29;83.72
28027;BME280;15344;52.342;-1.290;2024-01-07T11:05:02;101522.56;;;6.30;85.00
28027;BME280;15344;52.342;-1.290;2024-01-07T11:07:27;101524.63;;;6.62;84.08
28027;BME280;15344;52.342;-1.290;2024-01-07T11:09:53;101525.73;;;6.95;80.91
28027;BME280;15344;52.342;-1.290;2024-01-07T11:12:10;101523.51;;;6.14;82.55
28027;BME280;15344;52.342;-1.290;2024-01-07T11:14:37;101521.35;;;6.68;78.25
28027;BME280;15344;52.342;-1.290;2024-01-07T11:17:01;101526.21;;;5.99;79.38
28027;BME280;15344;52.342;-1.290;2024-01-07T11:19:26;101522.30;;;6.59;79.32
28027;BME280;15344;52.342;-1.290;2024-01-07T11:21:52;101528.84;;;6.17;77.31
28027;BME280;15344;52.342;-1.290;2024-01-07T11:26:44;101525.94;;;6.56;77.65
28027;BME280;15344;52.342;-1.290;2024-01-07T11:29:09;101526.69;;;5.83;74.58
28027;BME280;15344;52.342;-1.290;2024-01-07T11:31:43;101525.46;;;6.10;76.65
28027;BME280;15344;52.342;-1.290;2024-01-07T11:34:00;101528.32;;;6.57;76.51
28027;BME280;15344;52.342;-1.290;2024-01-07T11:36:26;101524.46;;;6.37;72.59
28027;BME280;15344;52.342;-1.290;2024-01-07T11:38:51;101523.89;;;5.66;76.21
28027;BME280;15344;52.342;-1.290;2024-01-07T11:41:17;101521.40;;;5.52;77.52
28027;BME280;15344;52.342;-1.290;2024-01-07T11:46:08;101521.17;;;5.32;76.89
28027;BME280;15344;52.342;-1.290;2024-01-07T11:48:33;101516.29;;;6.26;74.14
28027;BME280;15344;52.342;-1.290;2024-01-07T11:50:59;101522.59;;;5.94;74.38
28027;BME280;15344;52.342;-1.290;2024-01-07T11:53:25;101522.12;;;5.24;75.26
28027;BME280;15344;52.342;-1.290;2024-01-07T11:55:50;101527.00;;;5.14;76.59
28027;BME280;15344;52.342;-1.290;2024-01-07T11:58:16;101526.10;;;5.81;77.08
28027;BME280;15344;52.342;-1.290;2024-01-07T12:00:41;101524.38;;;6.16;77.67
28027;BME280;15344;52.342;-1.290;2024-01-07T12:03:07;101529.03;;;5.86;77.97
28027;BME280;15344;52.342;-1.290;2024-01-07T12:05:32;101522.85;;;5.87;75.20
28027;BME280;15344;52.342;-1.290;2024-01-07T12:08:00;101528.46;;;5.70;73.43
28027;BME280;15344;52.342;-1.290;2024-01-07T12:10:24;101533.40;;;4.83;75.81
28027;BME280;15344;52.342;-1.290;2024-01-07T12:12:50;101523.69;;;5.38;73.39
28027;BME280;15344;52.342;-1.290;2024-01-07T12:15:15;101526.15;;;5.83;73.32
28027;BME280;15344;52.342;-1.290;2024-01-07T12:17:41;101529.87;;;5.03;75.24
28027;BME280;15344;52.342;-1.290;2024-01-07T12:20:09;101530.89;;;5.01;75.97
28027;BME280;15344;52.342;-1.290;2024-01-07T12:22:32;101524.79;;;5.96;75.52
28027;BME280;15344;52.342;-1.290;2024-01-07T12:25:01;101520.68;;;6.00;71.64
28027;BME280;15344;52.342;-1.290;2024-01-07T12:27:23;101519.47;;;5.52;71.89
28027;BME280;15344;52.342;-1.290;2024-01-07T12:29:54;101520.41;;;5.52;75.17
28027;BME280;15344;52.342;-1.290;2024-01-07T12:32:16;101524.55;;;5.43;69.60
28027;BME280;15344;52.342;-1.290;2024-01-07T12:34:39;101533.56;;;4.54;72.79
28027;BME280;15344;52.342;-1.290;2024-01-07T12:37:05;101534.88;;;4.71;70.84
28027;BME280;15344;52.342;-1.290;2024-01-07T12:39:31;101534.85;;;5.28;74.34
28027;BME280;15344;52.342;-1.290;2024-01-07T12:41:57;101537.41;;;4.38;72.64